createdAt,value
2023-03-23T00:03:12.641Z,590.00
2023-03-23T00:07:12.493Z,586.00
2023-03-23T00:11:12.499Z,587.00
2023-03-23T00:15:12.417Z,591.00
2023-03-23T00:19:12.405Z,592.00
2023-03-23T00:23:12.337Z,592.00
2023-03-23T00:27:12.294Z,590.00
2023-03-23T00:31:12.269Z,589.00
2023-03-23T00:35:12.239Z,588.00
2023-03-23T00:39:12.413Z,589.00
2023-03-23T00:43:12.386Z,588.00
2023-03-23T00:47:12.350Z,589.00
2023-03-23T00:51:12.322Z,589.00
2023-03-23T00:55:12.276Z,594.00
2023-03-23T00:59:12.789Z,597.00
2023-03-23T01:03:12.211Z,594.00
2023-03-23T01:07:12.798Z,592.00
2023-03-23T01:11:12.292Z,591.00
2023-03-23T01:15:12.061Z,596.00
2023-03-23T01:19:12.043Z,590.00
2023-03-23T01:23:12.207Z,583.00
2023-03-23T01:27:12.385Z,580.00
2023-03-23T01:31:14.562Z,580.00
2023-03-23T01:35:12.533Z,583.00
2023-03-23T01:39:12.763Z,585.00
2023-03-23T01:43:12.695Z,591.00
2023-03-23T01:47:12.650Z,593.00
2023-03-23T01:51:12.627Z,594.00
2023-03-23T01:55:12.604Z,595.00
2023-03-23T01:59:12.533Z,593.00
2023-03-23T02:03:12.499Z,600.00
2023-03-23T02:07:12.538Z,596.00
2023-03-23T02:11:12.442Z,596.00
2023-03-23T02:15:13.397Z,601.00
2023-03-23T02:19:12.376Z,595.00
2023-03-23T02:23:12.356Z,596.00
2023-03-23T02:27:12.437Z,598.00
2023-03-23T02:31:12.615Z,594.00
2023-03-23T02:35:12.683Z,596.00
2023-03-23T02:39:12.806Z,593.00
2023-03-23T02:43:12.880Z,601.00
2023-03-23T02:47:12.977Z,602.00
2023-03-23T02:51:12.990Z,599.00
2023-03-23T02:55:12.953Z,600.00
2023-03-23T02:59:12.923Z,600.00
2023-03-23T03:03:12.941Z,596.00
2023-03-23T03:07:12.928Z,600.00
2023-03-23T03:11:12.887Z,594.00
2023-03-23T03:15:13.015Z,597.00
2023-03-23T03:19:13.240Z,592.00
2023-03-23T03:23:13.368Z,595.00
2023-03-23T03:27:13.518Z,595.00
2023-03-23T03:31:13.686Z,591.00
2023-03-23T03:35:13.858Z,591.00
2023-03-23T03:39:13.982Z,598.00
2023-03-23T03:43:14.153Z,595.00
2023-03-23T03:47:14.330Z,592.00
2023-03-23T03:51:14.461Z,592.00
2023-03-23T03:55:14.588Z,592.00
2023-03-23T03:59:22.183Z,593.00
2023-03-23T04:03:15.862Z,594.00
2023-03-23T04:07:14.568Z,592.00
2023-03-23T04:11:32.680Z,596.00
2023-03-23T04:15:15.515Z,589.00
2023-03-23T04:19:14.482Z,589.00
2023-03-23T04:23:14.453Z,595.00
2023-03-23T04:27:14.400Z,591.00
2023-03-23T04:31:14.436Z,596.00
2023-03-23T04:35:14.553Z,598.00
2023-03-23T04:39:14.446Z,600.00
2023-03-23T04:43:14.461Z,593.00
2023-03-23T04:47:14.479Z,589.00
2023-03-23T04:51:14.460Z,589.00
2023-03-23T04:55:14.477Z,589.00
2023-03-23T04:59:14.534Z,585.00
2023-03-23T05:03:14.490Z,589.00
2023-03-23T05:07:14.492Z,587.00
2023-03-23T05:11:14.520Z,591.00
2023-03-23T05:15:14.520Z,589.00
2023-03-23T05:19:14.490Z,591.00
2023-03-23T05:23:14.573Z,592.00
2023-03-23T05:27:14.497Z,590.00
2023-03-23T05:31:14.638Z,588.00
2023-03-23T05:35:14.570Z,596.00
2023-03-23T05:39:14.487Z,592.00
2023-03-23T05:43:14.528Z,597.00
2023-03-23T05:47:14.439Z,595.00
2023-03-23T05:51:14.408Z,598.00
2023-03-23T05:55:14.324Z,594.00
2023-03-23T05:59:14.297Z,591.00
2023-03-23T06:03:14.269Z,588.00
2023-03-23T06:07:14.260Z,586.00
2023-03-23T06:11:14.210Z,586.00
2023-03-23T06:15:14.140Z,587.00
2023-03-23T06:19:14.169Z,585.00
2023-03-23T06:23:14.078Z,591.00
2023-03-23T06:35:52.237Z,583.00
2023-03-23T06:40:06.381Z,866.00
2023-03-23T06:43:52.595Z,1083.00
2023-03-23T06:47:58.413Z,1042.00
2023-03-23T07:09:06.550Z,1247.00
2023-03-23T07:13:06.427Z,1319.00
2023-03-23T07:17:07.510Z,1330.00
2023-03-23T07:21:06.265Z,1269.00
2023-03-23T07:42:12.865Z,1061.00
2023-03-23T07:46:02.320Z,1045.00
2023-03-23T07:50:14.443Z,1062.00
2023-03-23T07:54:21.187Z,1141.00
2023-03-23T07:58:21.030Z,1189.00
2023-03-23T08:02:22.332Z,1285.00
2023-03-23T08:06:21.789Z,1297.00
2023-03-23T08:10:20.773Z,1258.00
2023-03-23T08:14:21.942Z,1247.00
2023-03-23T08:18:20.794Z,1203.00
2023-03-23T08:22:21.672Z,1195.00
2023-03-23T08:26:32.422Z,1218.00
2023-03-23T08:30:21.206Z,1092.00
2023-03-23T08:34:21.359Z,1243.00
2023-03-23T08:38:28.391Z,1176.00
2023-03-23T08:42:20.718Z,1093.00
2023-03-23T08:46:20.695Z,1036.00
2023-03-23T08:50:27.066Z,978.00
2023-03-23T08:58:39.550Z,887.00
2023-03-23T09:07:06.979Z,802.00
2023-03-23T09:19:37.324Z,725.00
2023-03-23T09:23:44.468Z,874.00
2023-03-23T09:27:35.829Z,867.00
2023-03-23T09:35:57.041Z,839.00
2023-03-23T09:44:17.751Z,983.00
2023-03-23T09:48:19.051Z,1053.00
2023-03-23T09:52:12.341Z,932.00
2023-03-23T09:56:13.654Z,861.00
2023-03-23T10:00:16.165Z,1051.00
2023-03-23T10:08:31.660Z,1132.00
2023-03-23T10:12:31.264Z,1219.00
2023-03-23T10:16:35.168Z,1218.00
2023-03-23T10:20:30.829Z,1242.00
2023-03-23T10:28:49.915Z,1430.00
2023-03-23T10:32:49.642Z,1143.00
2023-03-23T10:36:54.828Z,972.00
2023-03-23T10:40:49.684Z,1146.00
2023-03-23T10:44:50.627Z,1247.00
2023-03-23T10:48:54.195Z,1294.00
2023-03-23T10:52:55.686Z,1331.00
2023-03-23T10:56:59.687Z,1355.00
2023-03-23T11:00:50.973Z,1441.00
2023-03-23T11:04:50.036Z,1512.00
2023-03-23T11:08:50.376Z,1563.00
2023-03-23T11:12:52.123Z,1601.00
2023-03-23T11:16:50.888Z,1634.00
2023-03-23T11:20:53.547Z,1616.00
2023-03-23T11:24:51.134Z,1641.00
2023-03-23T11:28:49.862Z,1723.00
2023-03-23T11:32:52.913Z,1333.00
2023-03-23T11:36:52.678Z,1407.00
2023-03-23T11:40:50.109Z,1424.00
2023-03-23T11:44:52.011Z,1416.00
2023-03-23T11:57:09.460Z,1757.00
2023-03-23T12:05:27.003Z,2091.00
2023-03-23T12:09:37.579Z,2444.00
2023-03-23T12:13:49.829Z,2260.00
2023-03-23T12:22:04.352Z,2368.00
2023-03-23T12:26:04.108Z,2318.00
2023-03-23T12:30:04.451Z,2260.00
2023-03-23T12:34:04.159Z,2213.00
2023-03-23T12:38:04.030Z,2189.00
2023-03-23T12:42:04.376Z,2171.00
2023-03-23T12:46:04.036Z,2162.00
2023-03-23T12:50:04.010Z,2132.00
2023-03-23T12:54:03.876Z,2107.00
2023-03-23T12:58:03.963Z,2089.00
2023-03-23T13:02:03.819Z,2062.00
2023-03-23T13:06:03.798Z,2045.00
2023-03-23T13:10:05.299Z,2011.00
2023-03-23T13:14:03.888Z,1989.00
2023-03-23T13:18:05.967Z,1970.00
2023-03-23T13:22:03.992Z,1953.00
2023-03-23T13:26:04.485Z,1927.00
2023-03-23T13:30:04.891Z,1905.00
2023-03-23T13:34:04.420Z,1889.00
2023-03-23T13:38:04.409Z,1878.00
2023-03-23T13:42:04.579Z,1878.00
2023-03-23T13:46:04.589Z,1863.00
2023-03-23T13:50:04.978Z,1839.00
2023-03-23T13:54:04.929Z,1824.00
2023-03-23T13:58:04.976Z,1811.00
2023-03-23T14:02:05.971Z,1802.00
2023-03-23T14:06:05.327Z,1790.00
2023-03-23T14:10:05.912Z,1786.00
2023-03-23T14:14:05.677Z,1777.00
2023-03-23T14:18:05.848Z,1769.00
2023-03-23T14:22:06.185Z,1759.00
2023-03-23T14:26:06.460Z,1745.00
2023-03-23T14:30:06.941Z,1734.00
2023-03-23T14:34:06.657Z,1730.00
2023-03-23T14:38:06.882Z,1721.00
2023-03-23T14:42:06.864Z,1718.00
2023-03-23T14:46:06.830Z,1713.00
2023-03-23T14:50:06.767Z,1714.00
2023-03-23T14:54:07.252Z,1705.00
2023-03-23T14:58:06.798Z,1688.00
2023-03-23T15:02:07.011Z,1682.00
2023-03-23T15:06:07.594Z,1679.00
2023-03-23T15:10:06.673Z,1669.00
2023-03-23T15:14:06.687Z,1657.00
2023-03-23T15:18:06.634Z,1656.00
2023-03-23T15:22:06.535Z,1648.00
2023-03-23T15:26:06.514Z,1643.00
2023-03-23T15:30:06.495Z,1639.00
2023-03-23T15:34:06.463Z,1622.00
2023-03-23T15:38:06.382Z,1617.00
2023-03-23T15:42:06.354Z,1609.00
2023-03-23T15:46:06.289Z,1594.00
2023-03-23T15:50:06.661Z,1596.00
2023-03-23T15:54:12.440Z,1592.00
2023-03-23T15:58:07.169Z,1581.00
2023-03-23T16:02:06.139Z,1509.00
2023-03-23T16:06:06.118Z,1395.00
2023-03-23T16:10:06.122Z,1354.00
2023-03-23T16:14:06.499Z,1305.00
2023-03-23T16:18:07.552Z,1312.00
2023-03-23T16:22:06.536Z,1304.00
2023-03-23T16:26:06.777Z,1301.00
2023-03-23T16:30:06.948Z,1298.00
2023-03-23T16:34:07.025Z,1290.00
2023-03-23T16:38:09.231Z,1293.00
2023-03-23T16:42:07.390Z,1290.00
2023-03-23T16:46:07.655Z,1283.00
2023-03-23T16:50:07.845Z,1277.00
2023-03-23T16:54:08.033Z,1262.00
2023-03-23T17:02:08.099Z,1252.00
2023-03-23T17:06:08.036Z,1241.00
2023-03-23T17:10:08.005Z,1237.00
2023-03-23T17:14:07.969Z,1233.00
2023-03-23T17:18:07.969Z,1222.00
2023-03-23T17:22:07.928Z,1210.00
2023-03-23T17:26:07.891Z,1196.00
2023-03-23T17:30:08.205Z,1195.00
2023-03-23T17:34:07.782Z,1192.00
2023-03-23T17:38:07.809Z,1187.00
2023-03-23T17:42:08.002Z,1179.00
2023-03-23T17:46:08.158Z,1168.00
2023-03-23T17:50:11.191Z,1164.00
2023-03-23T17:54:08.313Z,1163.00
2023-03-23T17:58:08.278Z,1158.00
2023-03-23T18:02:08.296Z,1155.00
2023-03-23T18:06:08.251Z,1154.00
2023-03-23T18:10:08.140Z,1147.00
2023-03-23T18:14:08.223Z,1140.00
2023-03-23T18:18:08.571Z,1139.00
2023-03-23T18:22:08.800Z,1123.00
2023-03-23T18:26:08.765Z,1115.00
2023-03-23T18:30:08.839Z,1109.00
2023-03-23T18:34:08.790Z,1107.00
2023-03-23T18:38:08.882Z,1096.00
2023-03-23T18:42:08.746Z,1081.00
2023-03-23T18:46:08.845Z,1066.00
2023-03-23T18:50:08.743Z,1052.00
2023-03-23T18:54:08.763Z,1034.00
2023-03-23T18:58:08.732Z,1029.00
2023-03-23T19:02:08.771Z,1023.00
2023-03-23T19:06:08.778Z,1011.00
2023-03-23T19:10:08.776Z,1004.00
2023-03-23T19:14:08.780Z,1001.00
2023-03-23T19:18:08.782Z,995.00
2023-03-23T19:22:08.921Z,977.00
2023-03-23T19:26:08.810Z,972.00
2023-03-23T19:30:08.838Z,967.00
2023-03-23T19:34:08.921Z,954.00
2023-03-23T19:38:08.924Z,939.00
2023-03-23T19:42:08.956Z,926.00
2023-03-23T19:46:09.071Z,918.00
2023-03-23T19:50:09.094Z,907.00
2023-03-23T19:54:09.224Z,912.00
2023-03-23T19:58:09.484Z,902.00
2023-03-23T20:02:09.437Z,898.00
2023-03-23T20:06:09.347Z,884.00
2023-03-23T20:10:09.419Z,872.00
2023-03-23T20:14:09.492Z,864.00
2023-03-23T20:18:09.802Z,862.00
2023-03-23T20:22:09.711Z,859.00
2023-03-23T20:26:09.777Z,850.00
2023-03-23T20:30:09.878Z,847.00
2023-03-23T20:34:09.967Z,840.00
2023-03-23T20:38:10.096Z,832.00
2023-03-23T20:42:10.210Z,818.00
2023-03-23T20:46:10.340Z,819.00
2023-03-23T20:50:10.454Z,818.00
2023-03-23T20:54:10.593Z,819.00
2023-03-23T20:58:10.719Z,815.00
2023-03-23T21:02:10.784Z,809.00
2023-03-23T21:06:10.977Z,811.00
2023-03-23T21:10:11.035Z,806.00
2023-03-23T21:14:11.215Z,804.00
2023-03-23T21:18:11.344Z,808.00
2023-03-23T21:22:11.419Z,807.00
2023-03-23T21:26:11.635Z,802.00
2023-03-23T21:30:12.077Z,802.00
2023-03-23T21:34:11.889Z,806.00
2023-03-23T21:38:12.162Z,802.00
2023-03-23T21:42:12.161Z,794.00
2023-03-23T21:46:12.320Z,785.00
2023-03-23T21:50:12.400Z,785.00
2023-03-23T21:54:12.647Z,785.00
2023-03-23T21:58:12.835Z,773.00
2023-03-23T22:02:12.843Z,767.00
2023-03-23T22:06:12.916Z,770.00
2023-03-23T22:10:13.079Z,773.00
2023-03-23T22:14:13.444Z,771.00
2023-03-23T22:18:13.500Z,776.00
2023-03-23T22:22:13.493Z,778.00
2023-03-23T22:26:13.570Z,775.00
2023-03-23T22:30:13.686Z,773.00
2023-03-23T22:34:13.848Z,769.00
2023-03-23T22:38:13.993Z,769.00
2023-03-23T22:42:14.074Z,769.00
2023-03-23T22:46:14.270Z,772.00
2023-03-23T22:50:14.368Z,773.00
2023-03-23T22:54:14.527Z,772.00
2023-03-23T22:58:14.608Z,775.00
2023-03-23T23:02:14.815Z,775.00
2023-03-23T23:06:14.856Z,773.00
2023-03-23T23:10:15.665Z,772.00
2023-03-23T23:14:15.105Z,770.00
2023-03-23T23:18:15.282Z,773.00
2023-03-23T23:22:19.326Z,768.00
2023-03-23T23:26:15.438Z,770.00
2023-03-23T23:30:15.390Z,771.00
2023-03-23T23:34:15.275Z,763.00
2023-03-23T23:38:15.248Z,766.00
2023-03-23T23:42:16.139Z,766.00
2023-03-23T23:46:15.224Z,765.00
2023-03-23T23:50:15.659Z,766.00
2023-03-23T23:54:15.344Z,764.00
2023-03-23T23:58:15.475Z,764.00
